sensor_id;sensor_type;location;lat;lon;timestamp;pressure;altitude;pressure_sealevel;temperature;humidity
56825;BME280;42705;50.326;18.772;2022-08-19T00:01:27;97885.02;;;24.76;53.06
56825;BME280;42705;50.326;18.772;2022-08-19T00:06:50;97882.63;;;24.77;53.24
56825;BME280;42705;50.326;18.772;2022-08-19T00:12:12;97882.34;;;24.76;53.33
56825;BME280;42705;50.326;18.772;2022-08-19T00:17:33;97892.67;;;24.70;53.26
56825;BME280;42705;50.326;18.772;2022-08-19T00:22:54;97886.97;;;24.64;53.51
56825;BME280;42705;50.326;18.772;2022-08-19T00:28:16;97878.58;;;24.57;53.63
56825;BME280;42705;50.326;18.772;2022-08-19T00:33:37;97879.59;;;24.54;53.78
56825;BME280;42705;50.326;18.772;2022-08-19T00:38:59;97864.84;;;24.51;53.99
56825;BME280;42705;50.326;18.772;2022-08-19T00:44:23;97858.93;;;24.49;54.18
56825;BME280;42705;50.326;18.772;2022-08-19T00:49:49;97860.50;;;24.48;54.27
56825;BME280;42705;50.326;18.772;2022-08-19T00:55:24;97858.19;;;24.37;54.33
56825;BME280;42705;50.326;18.772;2022-08-19T01:00:48;97850.38;;;24.33;54.56
56825;BME280;42705;50.326;18.772;2022-08-19T01:06:09;97846.05;;;24.29;54.73
56825;BME280;42705;50.326;18.772;2022-08-19T01:11:31;97846.84;;;24.30;55.00
56825;BME280;42705;50.326;18.772;2022-08-19T01:16:55;97847.62;;;24.27;55.02
56825;BME280;42705;50.326;18.772;2022-08-19T01:22:27;97844.59;;;24.21;55.11
56825;BME280;42705;50.326;18.772;2022-08-19T01:33:11;97829.75;;;24.13;55.48
56825;BME280;42705;50.326;18.772;2022-08-19T01:38:36;97834.09;;;24.17;55.65
56825;BME280;42705;50.326;18.772;2022-08-19T01:43:59;97827.41;;;24.17;55.73
56825;BME280;42705;50.326;18.772;2022-08-19T01:49:23;97829.52;;;24.15;55.75
56825;BME280;42705;50.326;18.772;2022-08-19T01:54:45;97824.66;;;24.12;55.85
56825;BME280;42705;50.326;18.772;2022-08-19T02:00:10;97822.96;;;24.06;55.93
56825;BME280;42705;50.326;18.772;2022-08-19T02:05:33;97826.86;;;24.01;56.08
56825;BME280;42705;50.326;18.772;2022-08-19T02:10:54;97819.84;;;23.97;56.12
56825;BME280;42705;50.326;18.772;2022-08-19T02:16:17;97820.77;;;23.88;56.32
56825;BME280;42705;50.326;18.772;2022-08-19T02:21:39;97825.48;;;23.83;56.46
56825;BME280;42705;50.326;18.772;2022-08-19T02:27:00;97818.03;;;23.85;56.73
56825;BME280;42705;50.326;18.772;2022-08-19T02:32:20;97817.23;;;23.85;56.68
56825;BME280;42705;50.326;18.772;2022-08-19T02:37:42;97817.72;;;23.82;56.76
56825;BME280;42705;50.326;18.772;2022-08-19T02:43:23;97814.14;;;23.76;56.82
56825;BME280;42705;50.326;18.772;2022-08-19T02:48:44;97814.88;;;23.72;56.85
56825;BME280;42705;50.326;18.772;2022-08-19T02:54:06;97809.69;;;23.65;56.92
56825;BME280;42705;50.326;18.772;2022-08-19T02:59:32;97809.83;;;23.58;56.99
56825;BME280;42705;50.326;18.772;2022-08-19T03:04:53;97813.23;;;23.53;57.24
56825;BME280;42705;50.326;18.772;2022-08-19T03:10:14;97810.59;;;23.56;57.33
56825;BME280;42705;50.326;18.772;2022-08-19T03:15:39;97803.20;;;23.61;57.37
56825;BME280;42705;50.326;18.772;2022-08-19T03:21:00;97805.33;;;23.61;57.35
56825;BME280;42705;50.326;18.772;2022-08-19T03:26:21;97807.44;;;23.59;57.33
56825;BME280;42705;50.326;18.772;2022-08-19T03:31:43;97805.30;;;23.59;57.34
56825;BME280;42705;50.326;18.772;2022-08-19T03:37:07;97826.59;;;23.53;57.32
56825;BME280;42705;50.326;18.772;2022-08-19T03:42:32;97828.08;;;23.47;57.37
56825;BME280;42705;50.326;18.772;2022-08-19T03:47:53;97829.34;;;23.44;57.51
56825;BME280;42705;50.326;18.772;2022-08-19T03:53:14;97835.52;;;23.45;57.56
56825;BME280;42705;50.326;18.772;2022-08-19T03:58:36;97838.28;;;23.50;57.53
56825;BME280;42705;50.326;18.772;2022-08-19T04:03:59;97844.55;;;23.55;57.59
56825;BME280;42705;50.326;18.772;2022-08-19T04:09:21;97854.98;;;23.57;57.41
56825;BME280;42705;50.326;18.772;2022-08-19T04:14:42;97860.58;;;23.55;57.46
56825;BME280;42705;50.326;18.772;2022-08-19T04:20:03;97857.08;;;23.55;57.48
56825;BME280;42705;50.326;18.772;2022-08-19T04:25:24;97869.68;;;23.57;57.45
56825;BME280;42705;50.326;18.772;2022-08-19T04:30:50;97882.28;;;23.59;57.38
56825;BME280;42705;50.326;18.772;2022-08-19T04:36:17;97885.14;;;23.55;57.30
56825;BME280;42705;50.326;18.772;2022-08-19T04:41:43;97893.07;;;23.50;57.36
56825;BME280;42705;50.326;18.772;2022-08-19T04:47:24;97895.65;;;23.45;57.54
56825;BME280;42705;50.326;18.772;2022-08-19T04:52:45;97890.24;;;23.42;57.71
56825;BME280;42705;50.326;18.772;2022-08-19T04:58:06;97884.48;;;23.48;57.75
56825;BME280;42705;50.326;18.772;2022-08-19T05:03:28;97893.80;;;23.60;57.77
56825;BME280;42705;50.326;18.772;2022-08-19T05:08:51;97878.48;;;23.69;57.69
56825;BME280;42705;50.326;18.772;2022-08-19T05:14:12;97884.77;;;23.78;57.47
56825;BME280;42705;50.326;18.772;2022-08-19T05:19:33;97887.55;;;23.85;57.35
56825;BME280;42705;50.326;18.772;2022-08-19T05:25:17;97889.21;;;23.87;57.30
56825;BME280;42705;50.326;18.772;2022-08-19T05:30:40;97894.67;;;23.94;57.28
56825;BME280;42705;50.326;18.772;2022-08-19T05:36:04;97899.36;;;24.02;57.25
56825;BME280;42705;50.326;18.772;2022-08-19T05:41:25;97901.10;;;24.08;57.17
56825;BME280;42705;50.326;18.772;2022-08-19T05:46:48;97900.91;;;24.12;57.12
56825;BME280;42705;50.326;18.772;2022-08-19T05:52:11;97908.44;;;24.15;57.10
56825;BME280;42705;50.326;18.772;2022-08-19T05:57:32;97906.41;;;24.22;57.22
56825;BME280;42705;50.326;18.772;2022-08-19T06:02:53;97901.98;;;24.31;57.09
56825;BME280;42705;50.326;18.772;2022-08-19T06:08:16;97910.92;;;24.36;57.02
56825;BME280;42705;50.326;18.772;2022-08-19T06:13:38;97915.91;;;24.47;56.94
56825;BME280;42705;50.326;18.772;2022-08-19T06:19:00;97907.75;;;24.56;56.85
56825;BME280;42705;50.326;18.772;2022-08-19T06:24:25;97919.05;;;24.61;56.64
56825;BME280;42705;50.326;18.772;2022-08-19T06:29:47;97918.25;;;24.61;56.47
56825;BME280;42705;50.326;18.772;2022-08-19T06:35:08;97933.89;;;24.69;56.46
56825;BME280;42705;50.326;18.772;2022-08-19T06:40:28;97940.48;;;24.78;56.85
56825;BME280;42705;50.326;18.772;2022-08-19T06:45:49;97945.25;;;24.93;56.83
56825;BME280;42705;50.326;18.772;2022-08-19T06:51:15;97959.95;;;25.10;56.94
56825;BME280;42705;50.326;18.772;2022-08-19T06:56:38;97968.50;;;25.27;56.80
56825;BME280;42705;50.326;18.772;2022-08-19T07:02:03;97967.06;;;25.41;56.56
56825;BME280;42705;50.326;18.772;2022-08-19T07:07:26;97969.39;;;25.55;56.53
56825;BME280;42705;50.326;18.772;2022-08-19T07:12:47;97977.03;;;25.66;56.23
56825;BME280;42705;50.326;18.772;2022-08-19T07:18:10;97992.72;;;25.77;56.22
56825;BME280;42705;50.326;18.772;2022-08-19T07:23:31;97994.72;;;25.86;55.98
56825;BME280;42705;50.326;18.772;2022-08-19T07:28:52;98000.73;;;25.96;55.65
56825;BME280;42705;50.326;18.772;2022-08-19T07:34:14;98011.00;;;26.05;55.47
56825;BME280;42705;50.326;18.772;2022-08-19T07:39:36;98006.59;;;26.15;54.90
56825;BME280;42705;50.326;18.772;2022-08-19T07:44:58;98018.48;;;26.25;53.85
56825;BME280;42705;50.326;18.772;2022-08-19T07:50:20;98011.59;;;26.34;53.84
56825;BME280;42705;50.326;18.772;2022-08-19T07:55:41;98013.84;;;26.45;53.54
56825;BME280;42705;50.326;18.772;2022-08-19T08:01:05;98018.50;;;26.57;52.79
56825;BME280;42705;50.326;18.772;2022-08-19T08:06:27;98015.93;;;26.70;52.93
56825;BME280;42705;50.326;18.772;2022-08-19T08:12:10;98021.38;;;26.81;53.16
56825;BME280;42705;50.326;18.772;2022-08-19T08:17:36;98026.05;;;26.91;53.23
56825;BME280;42705;50.326;18.772;2022-08-19T08:22:57;98021.02;;;27.02;53.22
56825;BME280;42705;50.326;18.772;2022-08-19T08:28:37;98023.52;;;27.14;52.75
56825;BME280;42705;50.326;18.772;2022-08-19T08:33:57;98019.84;;;27.28;51.78
56825;BME280;42705;50.326;18.772;2022-08-19T08:39:19;98010.77;;;27.44;50.84
56825;BME280;42705;50.326;18.772;2022-08-19T08:44:51;98005.26;;;27.64;50.17
56825;BME280;42705;50.326;18.772;2022-08-19T08:50:19;98012.58;;;27.82;49.90
56825;BME280;42705;50.326;18.772;2022-08-19T08:55:54;97992.98;;;27.97;49.94
56825;BME280;42705;50.326;18.772;2022-08-19T09:01:15;97989.27;;;28.16;49.09
56825;BME280;42705;50.326;18.772;2022-08-19T09:06:50;97991.47;;;28.35;49.46
56825;BME280;42705;50.326;18.772;2022-08-19T09:12:36;98004.68;;;28.52;49.17
56825;BME280;42705;50.326;18.772;2022-08-19T09:18:05;97999.02;;;28.69;48.13
56825;BME280;42705;50.326;18.772;2022-08-19T09:23:26;98004.43;;;28.87;48.34
56825;BME280;42705;50.326;18.772;2022-08-19T09:28:48;98010.08;;;29.01;47.93
56825;BME280;42705;50.326;18.772;2022-08-19T09:34:12;98015.69;;;29.15;47.92
56825;BME280;42705;50.326;18.772;2022-08-19T09:39:33;98010.53;;;29.29;47.71
56825;BME280;42705;50.326;18.772;2022-08-19T09:44:54;98015.66;;;29.38;46.31
56825;BME280;42705;50.326;18.772;2022-08-19T09:50:14;98008.10;;;29.45;46.61
56825;BME280;42705;50.326;18.772;2022-08-19T09:55:35;98013.72;;;29.57;46.57
56825;BME280;42705;50.326;18.772;2022-08-19T10:00:57;98014.22;;;29.64;46.53
56825;BME280;42705;50.326;18.772;2022-08-19T10:06:25;98012.84;;;29.69;46.29
56825;BME280;42705;50.326;18.772;2022-08-19T10:11:50;98004.20;;;29.72;46.44
56825;BME280;42705;50.326;18.772;2022-08-19T10:17:11;98008.77;;;29.77;46.03
56825;BME280;42705;50.326;18.772;2022-08-19T10:22:33;98004.98;;;29.81;46.30
56825;BME280;42705;50.326;18.772;2022-08-19T10:27:56;98002.49;;;29.95;46.20
56825;BME280;42705;50.326;18.772;2022-08-19T10:33:16;98000.77;;;30.14;45.97
56825;BME280;42705;50.326;18.772;2022-08-19T10:38:37;97993.89;;;30.35;45.86
56825;BME280;42705;50.326;18.772;2022-08-19T10:44:02;97991.05;;;30.53;45.09
56825;BME280;42705;50.326;18.772;2022-08-19T10:49:27;97986.36;;;30.69;44.76
56825;BME280;42705;50.326;18.772;2022-08-19T10:54:49;97976.53;;;30.79;44.50
56825;BME280;42705;50.326;18.772;2022-08-19T11:00:29;97973.45;;;30.90;43.59
56825;BME280;42705;50.326;18.772;2022-08-19T11:06:02;97955.97;;;31.07;43.80
56825;BME280;42705;50.326;18.772;2022-08-19T11:11:27;97960.45;;;31.19;42.76
56825;BME280;42705;50.326;18.772;2022-08-19T11:16:50;97974.97;;;31.29;41.79
56825;BME280;42705;50.326;18.772;2022-08-19T11:22:12;97972.92;;;31.40;41.36
56825;BME280;42705;50.326;18.772;2022-08-19T11:27:33;97976.06;;;31.50;40.67
56825;BME280;42705;50.326;18.772;2022-08-19T11:32:54;97971.02;;;31.62;41.04
56825;BME280;42705;50.326;18.772;2022-08-19T11:38:14;97970.06;;;31.74;41.14
56825;BME280;42705;50.326;18.772;2022-08-19T11:43:36;97960.63;;;31.94;41.55
56825;BME280;42705;50.326;18.772;2022-08-19T11:48:58;97965.72;;;32.14;40.55
56825;BME280;42705;50.326;18.772;2022-08-19T11:54:20;97962.73;;;32.35;40.35
56825;BME280;42705;50.326;18.772;2022-08-19T11:59:41;97962.35;;;32.58;40.25
56825;BME280;42705;50.326;18.772;2022-08-19T12:05:03;97951.92;;;32.66;39.99
56825;BME280;42705;50.326;18.772;2022-08-19T12:10:25;97953.08;;;32.62;39.98
56825;BME280;42705;50.326;18.772;2022-08-19T12:15:46;97949.23;;;32.49;39.22
56825;BME280;42705;50.326;18.772;2022-08-19T12:21:08;97947.78;;;32.38;39.59
56825;BME280;42705;50.326;18.772;2022-08-19T12:26:30;97937.25;;;32.36;40.14
56825;BME280;42705;50.326;18.772;2022-08-19T12:31:51;97927.39;;;32.43;40.81
56825;BME280;42705;50.326;18.772;2022-08-19T12:37:12;97918.38;;;32.61;41.01
56825;BME280;42705;50.326;18.772;2022-08-19T12:42:33;97923.38;;;32.85;40.64
56825;BME280;42705;50.326;18.772;2022-08-19T12:47:55;97920.00;;;33.07;40.40
56825;BME280;42705;50.326;18.772;2022-08-19T12:53:15;97921.99;;;33.29;39.11
56825;BME280;42705;50.326;18.772;2022-08-19T12:58:36;97928.31;;;33.53;38.33
56825;BME280;42705;50.326;18.772;2022-08-19T13:03:58;97932.27;;;33.72;38.13
56825;BME280;42705;50.326;18.772;2022-08-19T13:09:19;97933.73;;;34.15;36.95
56825;BME280;42705;50.326;18.772;2022-08-19T13:14:40;97931.23;;;35.89;35.23
56825;BME280;42705;50.326;18.772;2022-08-19T13:20:03;97918.55;;;37.54;33.08
56825;BME280;42705;50.326;18.772;2022-08-19T13:25:26;97919.07;;;39.69;30.81
56825;BME280;42705;50.326;18.772;2022-08-19T13:30:47;97915.95;;;41.56;28.50
56825;BME280;42705;50.326;18.772;2022-08-19T13:36:26;97913.77;;;43.04;26.83
56825;BME280;42705;50.326;18.772;2022-08-19T13:41:47;97916.31;;;44.49;25.73
56825;BME280;42705;50.326;18.772;2022-08-19T13:47:09;97913.88;;;45.14;24.48
56825;BME280;42705;50.326;18.772;2022-08-19T13:52:31;97899.73;;;44.25;23.85
56825;BME280;42705;50.326;18.772;2022-08-19T13:57:54;97897.45;;;44.79;23.08
56825;BME280;42705;50.326;18.772;2022-08-19T14:03:17;97886.85;;;45.52;23.01
56825;BME280;42705;50.326;18.772;2022-08-19T14:08:37;97885.29;;;46.44;22.55
56825;BME280;42705;50.326;18.772;2022-08-19T14:14:00;97888.05;;;46.95;21.36
56825;BME280;42705;50.326;18.772;2022-08-19T14:19:21;97886.36;;;47.41;20.65
56825;BME280;42705;50.326;18.772;2022-08-19T14:24:42;97883.19;;;47.87;20.14
56825;BME280;42705;50.326;18.772;2022-08-19T14:30:04;97873.04;;;47.96;19.96
56825;BME280;42705;50.326;18.772;2022-08-19T14:35:29;97868.70;;;47.91;19.14
56825;BME280;42705;50.326;18.772;2022-08-19T14:40:53;97858.23;;;46.62;19.07
56825;BME280;42705;50.326;18.772;2022-08-19T14:46:17;97853.47;;;45.08;20.18
56825;BME280;42705;50.326;18.772;2022-08-19T14:51:42;97839.88;;;44.81;20.91
56825;BME280;42705;50.326;18.772;2022-08-19T14:57:04;97823.20;;;44.95;21.14
56825;BME280;42705;50.326;18.772;2022-08-19T15:02:25;97815.74;;;44.19;21.31
56825;BME280;42705;50.326;18.772;2022-08-19T15:07:46;97811.95;;;43.59;22.12
56825;BME280;42705;50.326;18.772;2022-08-19T15:13:07;97817.47;;;42.84;22.72
56825;BME280;42705;50.326;18.772;2022-08-19T15:18:28;97812.30;;;42.05;23.40
56825;BME280;42705;50.326;18.772;2022-08-19T15:23:50;97801.19;;;41.29;23.75
56825;BME280;42705;50.326;18.772;2022-08-19T15:29:12;97803.26;;;41.06;24.17
56825;BME280;42705;50.326;18.772;2022-08-19T15:34:34;97778.84;;;40.33;24.87
56825;BME280;42705;50.326;18.772;2022-08-19T15:39:55;97768.52;;;39.37;25.52
56825;BME280;42705;50.326;18.772;2022-08-19T15:45:18;97774.80;;;38.41;26.32
56825;BME280;42705;50.326;18.772;2022-08-19T15:50:39;97787.84;;;37.58;27.12
56825;BME280;42705;50.326;18.772;2022-08-19T15:56:02;97804.55;;;36.84;27.81
56825;BME280;42705;50.326;18.772;2022-08-19T16:01:23;97819.75;;;36.16;28.48
56825;BME280;42705;50.326;18.772;2022-08-19T16:07:03;97787.39;;;35.56;29.16
56825;BME280;42705;50.326;18.772;2022-08-19T16:12:24;97794.78;;;35.00;30.06
56825;BME280;42705;50.326;18.772;2022-08-19T16:17:47;97820.02;;;34.11;31.69
56825;BME280;42705;50.326;18.772;2022-08-19T16:23:08;97846.42;;;33.73;32.36
56825;BME280;42705;50.326;18.772;2022-08-19T16:28:30;97846.42;;;33.73;32.36
56825;BME280;42705;50.326;18.772;2022-08-19T16:33:51;97862.39;;;33.38;32.59
56825;BME280;42705;50.326;18.772;2022-08-19T16:39:13;97845.34;;;32.54;34.96
56825;BME280;42705;50.326;18.772;2022-08-19T16:44:36;97851.84;;;31.89;36.65
56825;BME280;42705;50.326;18.772;2022-08-19T16:50:03;97886.14;;;31.36;37.99
56825;BME280;42705;50.326;18.772;2022-08-19T16:55:26;97869.33;;;30.69;39.33
56825;BME280;42705;50.326;18.772;2022-08-19T17:00:47;97845.00;;;30.10;40.86
56825;BME280;42705;50.326;18.772;2022-08-19T17:06:16;97832.47;;;29.50;42.36
56825;BME280;42705;50.326;18.772;2022-08-19T17:11:35;97884.77;;;28.85;43.80
56825;BME280;42705;50.326;18.772;2022-08-19T17:16:56;97970.45;;;28.39;44.96
56825;BME280;42705;50.326;18.772;2022-08-19T17:22:17;98003.22;;;27.97;45.97
56825;BME280;42705;50.326;18.772;2022-08-19T17:27:38;97996.49;;;27.36;47.51
56825;BME280;42705;50.326;18.772;2022-08-19T17:32:58;98023.33;;;26.88;48.41
56825;BME280;42705;50.326;18.772;2022-08-19T17:38:21;98085.26;;;26.19;50.35
56825;BME280;42705;50.326;18.772;2022-08-19T17:43:42;98049.46;;;25.46;51.82
56825;BME280;42705;50.326;18.772;2022-08-19T17:56:17;98213.91;;;24.12;57.08
56825;BME280;42705;50.326;18.772;2022-08-19T18:01:38;98198.14;;;23.23;59.39
56825;BME280;42705;50.326;18.772;2022-08-19T18:06:59;98170.38;;;22.81;60.52
56825;BME280;42705;50.326;18.772;2022-08-19T18:12:24;98163.37;;;22.68;60.84
56825;BME280;42705;50.326;18.772;2022-08-19T18:17:53;98179.56;;;22.55;61.99
56825;BME280;42705;50.326;18.772;2022-08-19T18:23:19;98142.95;;;22.53;62.63
56825;BME280;42705;50.326;18.772;2022-08-19T18:28:40;98103.00;;;22.55;63.50
56825;BME280;42705;50.326;18.772;2022-08-19T18:34:01;98114.15;;;22.86;64.02
56825;BME280;42705;50.326;18.772;2022-08-19T18:39:22;98127.01;;;23.19;64.09
56825;BME280;42705;50.326;18.772;2022-08-19T18:45:03;98168.19;;;23.54;64.01
56825;BME280;42705;50.326;18.772;2022-08-19T18:50:43;98140.52;;;23.60;63.66
56825;BME280;42705;50.326;18.772;2022-08-19T18:56:06;98169.69;;;23.85;63.77
56825;BME280;42705;50.326;18.772;2022-08-19T19:01:35;98145.30;;;24.06;63.85
56825;BME280;42705;50.326;18.772;2022-08-19T19:06:58;98139.48;;;24.23;63.63
56825;BME280;42705;50.326;18.772;2022-08-19T19:12:19;98158.42;;;24.34;63.45
56825;BME280;42705;50.326;18.772;2022-08-19T19:17:41;98234.27;;;24.01;62.91
56825;BME280;42705;50.326;18.772;2022-08-19T19:23:03;98231.03;;;23.66;63.64
56825;BME280;42705;50.326;18.772;2022-08-19T19:28:25;98214.02;;;23.69;64.01
56825;BME280;42705;50.326;18.772;2022-08-19T19:33:48;98169.65;;;23.83;64.10
56825;BME280;42705;50.326;18.772;2022-08-19T19:39:09;98172.68;;;23.87;63.86
56825;BME280;42705;50.326;18.772;2022-08-19T19:44:32;98196.68;;;23.96;63.98
56825;BME280;42705;50.326;18.772;2022-08-19T19:49:56;98189.09;;;24.02;63.85
56825;BME280;42705;50.326;18.772;2022-08-19T19:55:17;98176.75;;;24.13;63.73
56825;BME280;42705;50.326;18.772;2022-08-19T20:00:38;98159.20;;;24.20;63.79
56825;BME280;42705;50.326;18.772;2022-08-19T20:05:59;98141.30;;;24.20;63.91
56825;BME280;42705;50.326;18.772;2022-08-19T20:11:29;98146.69;;;24.23;63.90
56825;BME280;42705;50.326;18.772;2022-08-19T20:16:53;98145.35;;;24.23;64.02
56825;BME280;42705;50.326;18.772;2022-08-19T20:22:15;98123.94;;;24.23;64.15
56825;BME280;42705;50.326;18.772;2022-08-19T20:27:37;98103.94;;;24.25;64.35
56825;BME280;42705;50.326;18.772;2022-08-19T20:32:59;98109.00;;;24.24;64.11
56825;BME280;42705;50.326;18.772;2022-08-19T20:38:21;98091.48;;;24.31;64.25
56825;BME280;42705;50.326;18.772;2022-08-19T20:43:42;98078.51;;;24.40;64.23
56825;BME280;42705;50.326;18.772;2022-08-19T20:49:03;98067.63;;;24.44;64.09
56825;BME280;42705;50.326;18.772;2022-08-19T20:54:25;98081.05;;;24.47;64.03
56825;BME280;42705;50.326;18.772;2022-08-19T20:59:48;98084.72;;;24.43;63.84
56825;BME280;42705;50.326;18.772;2022-08-19T21:05:09;98073.78;;;24.45;63.93
56825;BME280;42705;50.326;18.772;2022-08-19T21:10:31;98082.52;;;24.40;63.78
56825;BME280;42705;50.326;18.772;2022-08-19T21:15:53;98090.75;;;24.36;63.90
56825;BME280;42705;50.326;18.772;2022-08-19T21:21:15;98106.04;;;24.38;64.03
56825;BME280;42705;50.326;18.772;2022-08-19T21:26:36;98107.78;;;24.44;64.26
56825;BME280;42705;50.326;18.772;2022-08-19T21:31:58;98114.35;;;24.39;64.17
56825;BME280;42705;50.326;18.772;2022-08-19T21:37:19;98133.25;;;24.32;64.23
56825;BME280;42705;50.326;18.772;2022-08-19T21:42:41;98141.42;;;24.13;64.32
56825;BME280;42705;50.326;18.772;2022-08-19T21:48:03;98144.84;;;23.99;64.71
56825;BME280;42705;50.326;18.772;2022-08-19T21:53:24;98154.66;;;23.70;65.06
56825;BME280;42705;50.326;18.772;2022-08-19T21:58:45;98144.37;;;23.40;65.56
56825;BME280;42705;50.326;18.772;2022-08-19T22:04:10;98136.58;;;23.18;66.42
56825;BME280;42705;50.326;18.772;2022-08-19T22:09:32;98144.09;;;22.97;66.87
56825;BME280;42705;50.326;18.772;2022-08-19T22:14:54;98125.54;;;22.72;67.09
56825;BME280;42705;50.326;18.772;2022-08-19T22:20:19;98090.83;;;22.60;67.54
56825;BME280;42705;50.326;18.772;2022-08-19T22:25:44;98082.19;;;22.67;67.82
56825;BME280;42705;50.326;18.772;2022-08-19T22:31:06;98084.45;;;22.73;67.93
56825;BME280;42705;50.326;18.772;2022-08-19T22:36:27;98087.73;;;22.87;68.11
56825;BME280;42705;50.326;18.772;2022-08-19T22:41:50;98082.91;;;23.07;68.27
56825;BME280;42705;50.326;18.772;2022-08-19T22:47:12;98059.64;;;23.29;68.07
56825;BME280;42705;50.326;18.772;2022-08-19T22:52:33;98057.08;;;23.46;67.81
56825;BME280;42705;50.326;18.772;2022-08-19T22:57:56;98052.09;;;23.62;67.57
56825;BME280;42705;50.326;18.772;2022-08-19T23:03:18;98048.92;;;23.77;67.36
56825;BME280;42705;50.326;18.772;2022-08-19T23:08:42;98045.40;;;23.88;67.16
56825;BME280;42705;50.326;18.772;2022-08-19T23:14:04;98045.56;;;23.96;66.89
56825;BME280;42705;50.326;18.772;2022-08-19T23:19:25;98058.97;;;23.98;66.57
56825;BME280;42705;50.326;18.772;2022-08-19T23:24:46;98082.66;;;23.92;66.33
56825;BME280;42705;50.326;18.772;2022-08-19T23:30:08;98111.27;;;23.92;66.29
56825;BME280;42705;50.326;18.772;2022-08-19T23:35:46;98099.73;;;23.77;66.30
56825;BME280;42705;50.326;18.772;2022-08-19T23:41:08;98094.56;;;23.73;66.46
56825;BME280;42705;50.326;18.772;2022-08-19T23:46:31;98116.24;;;23.74;66.51
56825;BME280;42705;50.326;18.772;2022-08-19T23:51:53;98102.41;;;23.65;66.57
56825;BME280;42705;50.326;18.772;2022-08-19T23:57:15;98090.89;;;23.64;66.76
